sensor_id;sensor_type;location;lat;lon;timestamp;P1;durP1;ratioP1;P2;durP2;ratioP2
43124;SDS011;49182;50.788;7.318;2024-03-17T00:00:15;4.88;;;2.95;;
43124;SDS011;49182;50.788;7.318;2024-03-17T00:05:16;9.65;;;3.33;;
43124;SDS011;49182;50.788;7.318;2024-03-17T00:10:18;4.35;;;3.15;;
43124;SDS011;49182;50.788;7.318;2024-03-17T00:15:19;5.00;;;2.90;;
43124;SDS011;49182;50.788;7.318;2024-03-17T00:20:19;6.82;;;3.30;;
43124;SDS011;49182;50.788;7.318;2024-03-17T00:25:21;4.45;;;3.85;;
43124;SDS011;49182;50.788;7.318;2024-03-17T00:30:22;8.02;;;3.08;;
43124;SDS011;49182;50.788;7.318;2024-03-17T00:35:23;4.85;;;3.53;;
43124;SDS011;49182;50.788;7.318;2024-03-17T00:40:26;6.72;;;4.05;;
43124;SDS011;49182;50.788;7.318;2024-03-17T00:45:27;8.50;;;3.35;;
43124;SDS011;49182;50.788;7.318;2024-03-17T00:50:27;4.72;;;3.28;;
43124;SDS011;49182;50.788;7.318;2024-03-17T00:55:30;5.57;;;3.28;;
43124;SDS011;49182;50.788;7.318;2024-03-17T01:00:30;5.43;;;3.22;;
43124;SDS011;49182;50.788;7.318;2024-03-17T01:05:31;7.13;;;4.15;;
43124;SDS011;49182;50.788;7.318;2024-03-17T01:10:36;7.25;;;4.25;;
43124;SDS011;49182;50.788;7.318;2024-03-17T01:15:38;5.07;;;3.17;;
43124;SDS011;49182;50.788;7.318;2024-03-17T01:20:39;8.93;;;5.65;;
43124;SDS011;49182;50.788;7.318;2024-03-17T01:25:41;7.28;;;4.22;;
43124;SDS011;49182;50.788;7.318;2024-03-17T01:30:44;6.88;;;3.47;;
43124;SDS011;49182;50.788;7.318;2024-03-17T01:35:45;5.95;;;4.07;;
43124;SDS011;49182;50.788;7.318;2024-03-17T01:40:47;4.25;;;2.92;;
43124;SDS011;49182;50.788;7.318;2024-03-17T01:45:48;9.85;;;3.20;;
43124;SDS011;49182;50.788;7.318;2024-03-17T01:50:49;4.90;;;3.80;;
43124;SDS011;49182;50.788;7.318;2024-03-17T01:55:54;9.30;;;3.92;;
43124;SDS011;49182;50.788;7.318;2024-03-17T02:00:57;9.10;;;4.72;;
43124;SDS011;49182;50.788;7.318;2024-03-17T02:05:58;9.10;;;4.78;;
43124;SDS011;49182;50.788;7.318;2024-03-17T02:11:00;10.05;;;4.47;;
43124;SDS011;49182;50.788;7.318;2024-03-17T02:16:01;6.07;;;4.47;;
43124;SDS011;49182;50.788;7.318;2024-03-17T02:21:02;7.40;;;4.03;;
43124;SDS011;49182;50.788;7.318;2024-03-17T02:26:04;5.88;;;4.13;;
43124;SDS011;49182;50.788;7.318;2024-03-17T02:31:06;5.13;;;3.90;;
43124;SDS011;49182;50.788;7.318;2024-03-17T02:36:08;4.53;;;4.00;;
43124;SDS011;49182;50.788;7.318;2024-03-17T02:41:10;8.25;;;3.25;;
43124;SDS011;49182;50.788;7.318;2024-03-17T02:46:11;7.00;;;3.50;;
43124;SDS011;49182;50.788;7.318;2024-03-17T02:51:13;9.52;;;3.90;;
43124;SDS011;49182;50.788;7.318;2024-03-17T02:56:16;7.97;;;4.28;;
43124;SDS011;49182;50.788;7.318;2024-03-17T03:01:17;7.45;;;3.70;;
43124;SDS011;49182;50.788;7.318;2024-03-17T03:06:18;8.38;;;3.85;;
43124;SDS011;49182;50.788;7.318;2024-03-17T03:11:20;6.13;;;3.67;;
43124;SDS011;49182;50.788;7.318;2024-03-17T03:16:21;7.35;;;3.38;;
43124;SDS011;49182;50.788;7.318;2024-03-17T03:21:22;5.78;;;3.85;;
43124;SDS011;49182;50.788;7.318;2024-03-17T03:26:24;5.22;;;3.83;;
43124;SDS011;49182;50.788;7.318;2024-03-17T03:31:25;5.15;;;3.90;;
43124;SDS011;49182;50.788;7.318;2024-03-17T03:36:26;10.98;;;4.45;;
43124;SDS011;49182;50.788;7.318;2024-03-17T03:41:29;5.22;;;3.65;;
43124;SDS011;49182;50.788;7.318;2024-03-17T03:46:30;5.90;;;3.47;;
43124;SDS011;49182;50.788;7.318;2024-03-17T03:51:31;5.68;;;3.28;;
43124;SDS011;49182;50.788;7.318;2024-03-17T03:56:33;5.95;;;3.75;;
43124;SDS011;49182;50.788;7.318;2024-03-17T04:01:34;6.28;;;3.78;;
43124;SDS011;49182;50.788;7.318;2024-03-17T04:06:34;4.95;;;4.20;;
43124;SDS011;49182;50.788;7.318;2024-03-17T04:11:37;5.07;;;4.45;;
43124;SDS011;49182;50.788;7.318;2024-03-17T04:16:37;5.22;;;4.22;;
43124;SDS011;49182;50.788;7.318;2024-03-17T04:21:38;5.55;;;4.32;;
43124;SDS011;49182;50.788;7.318;2024-03-17T04:26:40;5.80;;;3.40;;
43124;SDS011;49182;50.788;7.318;2024-03-17T04:31:41;5.03;;;3.35;;
43124;SDS011;49182;50.788;7.318;2024-03-17T04:36:42;6.45;;;4.20;;
43124;SDS011;49182;50.788;7.318;2024-03-17T04:41:44;7.25;;;3.83;;
43124;SDS011;49182;50.788;7.318;2024-03-17T04:46:45;6.03;;;3.67;;
43124;SDS011;49182;50.788;7.318;2024-03-17T04:51:46;6.63;;;3.92;;
43124;SDS011;49182;50.788;7.318;2024-03-17T04:56:48;4.78;;;3.65;;
43124;SDS011;49182;50.788;7.318;2024-03-17T05:01:49;5.85;;;3.05;;
43124;SDS011;49182;50.788;7.318;2024-03-17T05:06:49;6.05;;;4.05;;
43124;SDS011;49182;50.788;7.318;2024-03-17T05:11:51;6.82;;;4.22;;
43124;SDS011;49182;50.788;7.318;2024-03-17T05:16:52;6.45;;;3.88;;
43124;SDS011;49182;50.788;7.318;2024-03-17T05:21:54;7.13;;;4.38;;
43124;SDS011;49182;50.788;7.318;2024-03-17T05:26:56;5.40;;;4.60;;
43124;SDS011;49182;50.788;7.318;2024-03-17T05:31:57;6.68;;;4.10;;
43124;SDS011;49182;50.788;7.318;2024-03-17T05:36:58;6.35;;;4.97;;
43124;SDS011;49182;50.788;7.318;2024-03-17T05:42:00;7.82;;;3.88;;
43124;SDS011;49182;50.788;7.318;2024-03-17T05:47:01;6.38;;;4.40;;
43124;SDS011;49182;50.788;7.318;2024-03-17T05:52:02;7.85;;;4.88;;
43124;SDS011;49182;50.788;7.318;2024-03-17T05:57:04;5.88;;;4.22;;
43124;SDS011;49182;50.788;7.318;2024-03-17T06:02:05;6.13;;;4.25;;
43124;SDS011;49182;50.788;7.318;2024-03-17T06:07:06;7.75;;;4.57;;
43124;SDS011;49182;50.788;7.318;2024-03-17T06:12:08;7.45;;;4.57;;
43124;SDS011;49182;50.788;7.318;2024-03-17T06:17:09;7.78;;;4.18;;
43124;SDS011;49182;50.788;7.318;2024-03-17T06:22:09;7.30;;;4.32;;
43124;SDS011;49182;50.788;7.318;2024-03-17T06:27:11;7.03;;;4.72;;
43124;SDS011;49182;50.788;7.318;2024-03-17T06:32:12;6.90;;;4.57;;
43124;SDS011;49182;50.788;7.318;2024-03-17T06:37:13;7.28;;;4.63;;
43124;SDS011;49182;50.788;7.318;2024-03-17T06:42:15;7.78;;;4.85;;
43124;SDS011;49182;50.788;7.318;2024-03-17T06:47:16;7.40;;;4.95;;
43124;SDS011;49182;50.788;7.318;2024-03-17T06:52:17;9.88;;;4.97;;
43124;SDS011;49182;50.788;7.318;2024-03-17T06:57:19;6.03;;;4.65;;
43124;SDS011;49182;50.788;7.318;2024-03-17T07:02:20;8.77;;;4.65;;
43124;SDS011;49182;50.788;7.318;2024-03-17T07:07:20;6.85;;;4.43;;
43124;SDS011;49182;50.788;7.318;2024-03-17T07:12:23;7.47;;;5.25;;
43124;SDS011;49182;50.788;7.318;2024-03-17T07:17:23;7.97;;;5.32;;
43124;SDS011;49182;50.788;7.318;2024-03-17T07:22:24;9.20;;;5.95;;
43124;SDS011;49182;50.788;7.318;2024-03-17T07:27:26;7.85;;;5.28;;
43124;SDS011;49182;50.788;7.318;2024-03-17T07:32:27;10.48;;;5.63;;
43124;SDS011;49182;50.788;7.318;2024-03-17T07:37:28;8.23;;;5.78;;
43124;SDS011;49182;50.788;7.318;2024-03-17T07:42:31;9.32;;;5.93;;
43124;SDS011;49182;50.788;7.318;2024-03-17T07:47:32;13.15;;;6.20;;
43124;SDS011;49182;50.788;7.318;2024-03-17T07:52:33;7.88;;;5.13;;
43124;SDS011;49182;50.788;7.318;2024-03-17T07:57:35;9.18;;;5.13;;
43124;SDS011;49182;50.788;7.318;2024-03-17T08:02:36;8.70;;;5.75;;
43124;SDS011;49182;50.788;7.318;2024-03-17T08:07:37;11.63;;;6.65;;
43124;SDS011;49182;50.788;7.318;2024-03-17T08:12:39;9.15;;;6.13;;
43124;SDS011;49182;50.788;7.318;2024-03-17T08:17:40;8.10;;;5.28;;
43124;SDS011;49182;50.788;7.318;2024-03-17T08:22:40;9.75;;;6.63;;
43124;SDS011;49182;50.788;7.318;2024-03-17T08:27:42;7.85;;;5.70;;
43124;SDS011;49182;50.788;7.318;2024-03-17T08:32:43;8.98;;;5.97;;
43124;SDS011;49182;50.788;7.318;2024-03-17T08:37:44;8.18;;;5.38;;
43124;SDS011;49182;50.788;7.318;2024-03-17T08:42:46;7.35;;;5.45;;
43124;SDS011;49182;50.788;7.318;2024-03-17T08:47:50;5.68;;;3.60;;
43124;SDS011;49182;50.788;7.318;2024-03-17T08:52:51;5.95;;;4.10;;
43124;SDS011;49182;50.788;7.318;2024-03-17T08:57:53;8.15;;;3.97;;
43124;SDS011;49182;50.788;7.318;2024-03-17T09:02:54;5.70;;;3.50;;
43124;SDS011;49182;50.788;7.318;2024-03-17T09:07:55;6.03;;;3.20;;
43124;SDS011;49182;50.788;7.318;2024-03-17T09:12:57;5.97;;;3.88;;
43124;SDS011;49182;50.788;7.318;2024-03-17T09:17:58;5.40;;;3.55;;
43124;SDS011;49182;50.788;7.318;2024-03-17T09:22:59;8.52;;;2.92;;
43124;SDS011;49182;50.788;7.318;2024-03-17T09:28:01;4.40;;;2.45;;
43124;SDS011;49182;50.788;7.318;2024-03-17T09:33:02;4.18;;;2.45;;
43124;SDS011;49182;50.788;7.318;2024-03-17T09:38:02;5.45;;;3.55;;
43124;SDS011;49182;50.788;7.318;2024-03-17T09:43:05;4.25;;;2.83;;
43124;SDS011;49182;50.788;7.318;2024-03-17T09:48:13;4.80;;;2.65;;
43124;SDS011;49182;50.788;7.318;2024-03-17T09:53:16;4.80;;;2.40;;
43124;SDS011;49182;50.788;7.318;2024-03-17T09:58:18;6.05;;;2.83;;
43124;SDS011;49182;50.788;7.318;2024-03-17T10:03:38;4.38;;;2.65;;
43124;SDS011;49182;50.788;7.318;2024-03-17T10:08:41;4.93;;;2.33;;
43124;SDS011;49182;50.788;7.318;2024-03-17T10:13:44;3.80;;;2.60;;
43124;SDS011;49182;50.788;7.318;2024-03-17T10:18:45;4.05;;;2.03;;
43124;SDS011;49182;50.788;7.318;2024-03-17T10:23:46;4.70;;;2.85;;
43124;SDS011;49182;50.788;7.318;2024-03-17T10:29:07;5.82;;;2.47;;
43124;SDS011;49182;50.788;7.318;2024-03-17T10:34:20;4.43;;;2.65;;
43124;SDS011;49182;50.788;7.318;2024-03-17T10:39:23;3.92;;;2.55;;
43124;SDS011;49182;50.788;7.318;2024-03-17T10:44:26;5.03;;;2.45;;
43124;SDS011;49182;50.788;7.318;2024-03-17T10:49:29;5.47;;;2.95;;
43124;SDS011;49182;50.788;7.318;2024-03-17T10:54:31;4.55;;;2.22;;
43124;SDS011;49182;50.788;7.318;2024-03-17T10:59:37;5.18;;;2.40;;
43124;SDS011;49182;50.788;7.318;2024-03-17T11:04:39;3.92;;;2.42;;
43124;SDS011;49182;50.788;7.318;2024-03-17T11:09:41;4.00;;;2.30;;
43124;SDS011;49182;50.788;7.318;2024-03-17T11:14:43;4.15;;;2.55;;
43124;SDS011;49182;50.788;7.318;2024-03-17T11:30:44;7.32;;;3.45;;
43124;SDS011;49182;50.788;7.318;2024-03-17T11:35:49;5.25;;;2.95;;
43124;SDS011;49182;50.788;7.318;2024-03-17T11:40:50;7.22;;;2.25;;
43124;SDS011;49182;50.788;7.318;2024-03-17T11:45:55;4.38;;;2.40;;
43124;SDS011;49182;50.788;7.318;2024-03-17T11:50:56;4.32;;;2.92;;
43124;SDS011;49182;50.788;7.318;2024-03-17T11:55:58;6.03;;;3.03;;
43124;SDS011;49182;50.788;7.318;2024-03-17T12:01:00;5.93;;;2.55;;
43124;SDS011;49182;50.788;7.318;2024-03-17T12:06:01;5.57;;;3.53;;
43124;SDS011;49182;50.788;7.318;2024-03-17T12:11:02;5.05;;;3.20;;
43124;SDS011;49182;50.788;7.318;2024-03-17T12:16:12;4.43;;;2.70;;
43124;SDS011;49182;50.788;7.318;2024-03-17T12:21:13;4.50;;;2.50;;
43124;SDS011;49182;50.788;7.318;2024-03-17T12:26:15;5.60;;;2.17;;
43124;SDS011;49182;50.788;7.318;2024-03-17T12:31:18;5.25;;;3.17;;
43124;SDS011;49182;50.788;7.318;2024-03-17T12:36:19;4.25;;;2.63;;
43124;SDS011;49182;50.788;7.318;2024-03-17T12:41:19;4.78;;;2.28;;
43124;SDS011;49182;50.788;7.318;2024-03-17T12:46:22;7.03;;;2.88;;
43124;SDS011;49182;50.788;7.318;2024-03-17T12:51:23;4.63;;;2.83;;
43124;SDS011;49182;50.788;7.318;2024-03-17T12:56:23;4.68;;;2.88;;
43124;SDS011;49182;50.788;7.318;2024-03-17T13:01:26;4.65;;;2.53;;
43124;SDS011;49182;50.788;7.318;2024-03-17T13:11:27;3.05;;;2.47;;
43124;SDS011;49182;50.788;7.318;2024-03-17T13:16:29;5.93;;;2.63;;
43124;SDS011;49182;50.788;7.318;2024-03-17T13:21:30;9.20;;;2.85;;
43124;SDS011;49182;50.788;7.318;2024-03-17T13:26:32;5.55;;;3.15;;
43124;SDS011;49182;50.788;7.318;2024-03-17T13:31:35;6.03;;;2.40;;
43124;SDS011;49182;50.788;7.318;2024-03-17T13:41:36;8.63;;;3.92;;
43124;SDS011;49182;50.788;7.318;2024-03-17T13:46:38;9.52;;;3.03;;
43124;SDS011;49182;50.788;7.318;2024-03-17T13:51:39;5.53;;;2.53;;
43124;SDS011;49182;50.788;7.318;2024-03-17T13:56:40;3.53;;;2.20;;
43124;SDS011;49182;50.788;7.318;2024-03-17T14:01:43;4.55;;;2.38;;
43124;SDS011;49182;50.788;7.318;2024-03-17T14:06:44;4.00;;;2.15;;
43124;SDS011;49182;50.788;7.318;2024-03-17T14:11:45;6.47;;;2.80;;
43124;SDS011;49182;50.788;7.318;2024-03-17T14:16:48;4.22;;;3.05;;
43124;SDS011;49182;50.788;7.318;2024-03-17T14:21:49;3.38;;;2.45;;
43124;SDS011;49182;50.788;7.318;2024-03-17T14:26:49;6.68;;;3.63;;
43124;SDS011;49182;50.788;7.318;2024-03-17T14:31:51;6.75;;;3.28;;
43124;SDS011;49182;50.788;7.318;2024-03-17T14:36:52;4.07;;;2.40;;
43124;SDS011;49182;50.788;7.318;2024-03-17T14:41:53;5.78;;;2.70;;
43124;SDS011;49182;50.788;7.318;2024-03-17T14:46:56;4.20;;;2.65;;
43124;SDS011;49182;50.788;7.318;2024-03-17T14:56:57;6.60;;;3.25;;
43124;SDS011;49182;50.788;7.318;2024-03-17T15:01:59;5.07;;;3.40;;
43124;SDS011;49182;50.788;7.318;2024-03-17T15:12:01;5.03;;;3.13;;
43124;SDS011;49182;50.788;7.318;2024-03-17T15:17:03;8.63;;;2.67;;
43124;SDS011;49182;50.788;7.318;2024-03-17T15:22:04;3.92;;;2.80;;
43124;SDS011;49182;50.788;7.318;2024-03-17T15:27:05;5.55;;;3.63;;
43124;SDS011;49182;50.788;7.318;2024-03-17T15:32:07;5.07;;;2.95;;
43124;SDS011;49182;50.788;7.318;2024-03-17T15:37:08;4.82;;;3.15;;
43124;SDS011;49182;50.788;7.318;2024-03-17T15:42:09;4.85;;;2.90;;
43124;SDS011;49182;50.788;7.318;2024-03-17T15:47:11;6.20;;;3.28;;
43124;SDS011;49182;50.788;7.318;2024-03-17T15:52:12;6.03;;;3.67;;
43124;SDS011;49182;50.788;7.318;2024-03-17T15:57:13;4.90;;;2.38;;
43124;SDS011;49182;50.788;7.318;2024-03-17T16:02:15;9.77;;;2.85;;
43124;SDS011;49182;50.788;7.318;2024-03-17T16:07:16;7.32;;;3.20;;
43124;SDS011;49182;50.788;7.318;2024-03-17T16:12:17;5.40;;;3.38;;
43124;SDS011;49182;50.788;7.318;2024-03-17T16:17:20;8.63;;;2.33;;
43124;SDS011;49182;50.788;7.318;2024-03-17T16:22:21;5.45;;;2.55;;
43124;SDS011;49182;50.788;7.318;2024-03-17T16:27:22;5.18;;;2.65;;
43124;SDS011;49182;50.788;7.318;2024-03-17T16:32:24;7.43;;;2.33;;
43124;SDS011;49182;50.788;7.318;2024-03-17T16:42:25;3.65;;;2.05;;
43124;SDS011;49182;50.788;7.318;2024-03-17T16:47:28;14.05;;;4.85;;
43124;SDS011;49182;50.788;7.318;2024-03-17T16:52:30;15.85;;;5.28;;
43124;SDS011;49182;50.788;7.318;2024-03-17T16:57:32;5.70;;;2.60;;
43124;SDS011;49182;50.788;7.318;2024-03-17T17:02:34;3.17;;;1.65;;
43124;SDS011;49182;50.788;7.318;2024-03-17T17:07:35;3.95;;;2.00;;
43124;SDS011;49182;50.788;7.318;2024-03-17T17:12:36;2.38;;;1.70;;
43124;SDS011;49182;50.788;7.318;2024-03-17T17:17:38;3.78;;;1.98;;
43124;SDS011;49182;50.788;7.318;2024-03-17T17:22:38;4.55;;;1.60;;
43124;SDS011;49182;50.788;7.318;2024-03-17T17:27:40;2.50;;;1.55;;
43124;SDS011;49182;50.788;7.318;2024-03-17T17:32:42;3.78;;;2.28;;
43124;SDS011;49182;50.788;7.318;2024-03-17T17:37:43;3.03;;;2.13;;
43124;SDS011;49182;50.788;7.318;2024-03-17T17:42:44;7.05;;;1.95;;
43124;SDS011;49182;50.788;7.318;2024-03-17T17:47:46;3.53;;;2.08;;
43124;SDS011;49182;50.788;7.318;2024-03-17T17:57:48;5.40;;;1.85;;
43124;SDS011;49182;50.788;7.318;2024-03-17T18:02:50;5.45;;;2.33;;
43124;SDS011;49182;50.788;7.318;2024-03-17T18:07:51;3.67;;;1.95;;
43124;SDS011;49182;50.788;7.318;2024-03-17T18:12:51;3.97;;;2.42;;
43124;SDS011;49182;50.788;7.318;2024-03-17T18:17:53;4.28;;;2.30;;
43124;SDS011;49182;50.788;7.318;2024-03-17T18:22:54;5.95;;;2.47;;
43124;SDS011;49182;50.788;7.318;2024-03-17T18:27:55;6.68;;;2.55;;
43124;SDS011;49182;50.788;7.318;2024-03-17T18:32:57;5.10;;;3.10;;
43124;SDS011;49182;50.788;7.318;2024-03-17T18:37:58;5.95;;;3.42;;
43124;SDS011;49182;50.788;7.318;2024-03-17T18:42:59;2.95;;;2.15;;
43124;SDS011;49182;50.788;7.318;2024-03-17T18:48:01;2.58;;;1.67;;
43124;SDS011;49182;50.788;7.318;2024-03-17T18:53:03;3.50;;;2.35;;
43124;SDS011;49182;50.788;7.318;2024-03-17T18:58:03;4.65;;;3.40;;
43124;SDS011;49182;50.788;7.318;2024-03-17T19:03:06;5.28;;;2.35;;
43124;SDS011;49182;50.788;7.318;2024-03-17T19:08:07;4.68;;;2.45;;
43124;SDS011;49182;50.788;7.318;2024-03-17T19:13:07;4.30;;;2.20;;
43124;SDS011;49182;50.788;7.318;2024-03-17T19:18:09;4.70;;;2.13;;
43124;SDS011;49182;50.788;7.318;2024-03-17T19:23:10;3.65;;;2.67;;
43124;SDS011;49182;50.788;7.318;2024-03-17T19:28:11;9.30;;;2.28;;
43124;SDS011;49182;50.788;7.318;2024-03-17T19:33:13;3.65;;;1.85;;
43124;SDS011;49182;50.788;7.318;2024-03-17T19:38:14;4.30;;;2.13;;
43124;SDS011;49182;50.788;7.318;2024-03-17T19:43:15;4.35;;;2.35;;
43124;SDS011;49182;50.788;7.318;2024-03-17T19:48:17;4.13;;;3.03;;
43124;SDS011;49182;50.788;7.318;2024-03-17T19:53:18;6.50;;;2.70;;
43124;SDS011;49182;50.788;7.318;2024-03-17T19:58:19;6.80;;;3.42;;
43124;SDS011;49182;50.788;7.318;2024-03-17T20:03:21;5.78;;;2.58;;
43124;SDS011;49182;50.788;7.318;2024-03-17T20:08:22;4.88;;;2.35;;
43124;SDS011;49182;50.788;7.318;2024-03-17T20:13:24;5.72;;;2.90;;
43124;SDS011;49182;50.788;7.318;2024-03-17T20:18:27;4.93;;;2.88;;
43124;SDS011;49182;50.788;7.318;2024-03-17T20:23:29;5.25;;;4.20;;
43124;SDS011;49182;50.788;7.318;2024-03-17T20:28:30;7.82;;;3.97;;
43124;SDS011;49182;50.788;7.318;2024-03-17T20:33:32;9.38;;;4.78;;
43124;SDS011;49182;50.788;7.318;2024-03-17T20:38:33;6.05;;;3.75;;
43124;SDS011;49182;50.788;7.318;2024-03-17T20:43:34;8.57;;;4.13;;
43124;SDS011;49182;50.788;7.318;2024-03-17T20:48:36;7.63;;;4.40;;
43124;SDS011;49182;50.788;7.318;2024-03-17T20:53:37;7.10;;;5.68;;
43124;SDS011;49182;50.788;7.318;2024-03-17T20:58:38;6.85;;;4.82;;
43124;SDS011;49182;50.788;7.318;2024-03-17T21:03:41;12.80;;;4.63;;
43124;SDS011;49182;50.788;7.318;2024-03-17T21:08:42;5.82;;;3.92;;
43124;SDS011;49182;50.788;7.318;2024-03-17T21:13:43;8.52;;;4.28;;
43124;SDS011;49182;50.788;7.318;2024-03-17T21:18:45;6.47;;;4.45;;
43124;SDS011;49182;50.788;7.318;2024-03-17T21:23:46;7.18;;;4.88;;
43124;SDS011;49182;50.788;7.318;2024-03-17T21:28:47;5.70;;;5.10;;
43124;SDS011;49182;50.788;7.318;2024-03-17T21:33:50;10.65;;;5.47;;
43124;SDS011;49182;50.788;7.318;2024-03-17T21:38:51;9.75;;;4.88;;
43124;SDS011;49182;50.788;7.318;2024-03-17T21:43:52;9.57;;;4.78;;
43124;SDS011;49182;50.788;7.318;2024-03-17T21:48:54;8.23;;;5.05;;
43124;SDS011;49182;50.788;7.318;2024-03-17T21:53:55;11.45;;;5.97;;
43124;SDS011;49182;50.788;7.318;2024-03-17T21:58:56;9.27;;;6.32;;
43124;SDS011;49182;50.788;7.318;2024-03-17T22:03:58;8.50;;;5.25;;
43124;SDS011;49182;50.788;7.318;2024-03-17T22:08:59;9.73;;;6.18;;
43124;SDS011;49182;50.788;7.318;2024-03-17T22:14:00;8.77;;;5.20;;
43124;SDS011;49182;50.788;7.318;2024-03-17T22:19:02;8.10;;;5.07;;
43124;SDS011;49182;50.788;7.318;2024-03-17T22:24:03;10.38;;;5.90;;
43124;SDS011;49182;50.788;7.318;2024-03-17T22:29:04;10.38;;;4.85;;
43124;SDS011;49182;50.788;7.318;2024-03-17T22:34:07;7.28;;;4.38;;
43124;SDS011;49182;50.788;7.318;2024-03-17T22:39:08;6.22;;;3.72;;
43124;SDS011;49182;50.788;7.318;2024-03-17T22:44:08;9.82;;;6.18;;
43124;SDS011;49182;50.788;7.318;2024-03-17T22:49:11;8.93;;;5.80;;
43124;SDS011;49182;50.788;7.318;2024-03-17T22:54:12;10.07;;;5.57;;
43124;SDS011;49182;50.788;7.318;2024-03-17T22:59:13;8.30;;;5.30;;
43124;SDS011;49182;50.788;7.318;2024-03-17T23:04:15;13.98;;;5.72;;
43124;SDS011;49182;50.788;7.318;2024-03-17T23:09:16;8.95;;;5.82;;
43124;SDS011;49182;50.788;7.318;2024-03-17T23:14:16;10.95;;;6.43;;
43124;SDS011;49182;50.788;7.318;2024-03-17T23:19:19;8.82;;;5.13;;
43124;SDS011;49182;50.788;7.318;2024-03-17T23:24:19;7.53;;;4.72;;
43124;SDS011;49182;50.788;7.318;2024-03-17T23:29:20;11.15;;;6.25;;
43124;SDS011;49182;50.788;7.318;2024-03-17T23:34:22;10.15;;;5.13;;
43124;SDS011;49182;50.788;7.318;2024-03-17T23:39:23;9.80;;;5.32;;
43124;SDS011;49182;50.788;7.318;2024-03-17T23:44:28;11.18;;;5.50;;
43124;SDS011;49182;50.788;7.318;2024-03-17T23:49:30;8.70;;;5.30;;
43124;SDS011;49182;50.788;7.318;2024-03-17T23:54:31;8.02;;;4.78;;
43124;SDS011;49182;50.788;7.318;2024-03-17T23:59:32;7.50;;;5.10;;
